x

Destruction Island, Wa (desw1) Weather Station

1:00 - Sat 3rd Dec 2016 All times are PST. -8 hours from GMT.

  • Wind
    11mph, 13mph gusts
  • Air Temp 49°f
  • Sea Pressure 1024.7mb
  • Destruction Island, Wa
  • Destruction Island, Wa

More Historic Weather Station data

Upgrade to MSW Pro to gain access to the past 30 days of data for over 8000 Wavebouys and Weather Stations around the globe.

Join Pro

Comparision Forecast

View Surf forecast
   
sam. 12/03 1:00 11 13 mph 1024.7mb 49f
12:00 22 26 mph 1025.4mb 50f
11:00 14 15 mph 1025.5mb 50f
10:00 17 18 mph 1025.8mb 50f
9:00 10 13 mph 1025.5mb 50f
8:00 14 15 mph 1025mb 50f
7:00 14 16 mph 1025.7mb 49f
6:00 10 14 mph 1025mb 47f
5:00 17
mph
1024.8mb 49f
4:00 9 11 mph 1024.8mb 49f
3:00 18 20 mph 1024.5mb 50f
2:00 15 17 mph 1024.1mb 50f
1:00 20 22 mph 1024.1mb 49f
12:00 25 30 mph 1023.5mb 51f
ven. 12/02 11:00 18 23 mph 1022.8mb 50f
10:00 24 25 mph 1022.1mb 51f
9:00 9 11 mph 1021.8mb 49f
8:00 22 24 mph 1021.2mb 51f
7:00 24 26 mph 1020.5mb 51f
6:00 22 23 mph 1020.3mb 51f
5:00 21 23 mph 1020mb 52f
4:00 22 24 mph 1019.4mb 52f
3:00 22 25 mph 1019.1mb 53f
2:00 20 21 mph 1019.1mb 51f
1:00 36 40 mph 1019.2mb 52f
12:00 39 44 mph 1020.1mb 52f
11:00 26 30 mph 1020.9mb 48f
10:00 31 36 mph 1021.4mb 48f
9:00 29 31 mph 1022.1mb 48f
8:00 28 31 mph 1022.5mb 48f
7:00 24 28 mph 1022.9mb 48f
6:00 24 29 mph 1023mb 48f
5:00 31 33 mph 1023mb 48f
4:00 26 30 mph 1023.8mb 48f
3:00 24 26 mph 1024.8mb 48f
2:00 24 29 mph 1025.1mb 47f
1:00 24 26 mph 1025.3mb 47f
12:00 25 26 mph 1025.3mb 47f
jeu. 12/01 11:00 25 28 mph 1025.3mb 47f
10:00 25 28 mph 1025.1mb 47f
9:00 22 24 mph 1025.1mb 47f
8:00 21 22 mph 1025.4mb 47f
7:00 22 23 mph 1025.6mb 47f
6:00 21 22 mph 1025.6mb 47f
5:00 20 22 mph 1025.5mb 47f
4:00 20 22 mph 1025.1mb 46f
3:00 20 21 mph 1025.3mb 46f
2:00 15 17 mph 1025.1mb 46f
1:00 16 18 mph 1025.1mb 46f
12:00 14 16 mph 1025.1mb 46f
11:00 10 13 mph 1025.3mb 46f
9:00 8 10 mph 1024.5mb 45f
8:00 7 8 mph 1024.4mb 44f
7:00 7 9 mph 1024.1mb 44f
6:00 7 8 mph 1023.5mb 44f
5:00 10 13 mph 1023.3mb 46f
4:00 13 14 mph 1023.2mb 48f
3:00 15 17 mph 1023.3mb 49f
2:00 15 16 mph 1023mb 47f
1:00 22 25 mph 1022mb 49f
12:00 23 26 mph 1021.8mb 48f
mer. 11/30 11:00 28 30 mph 1021.3mb 49f
10:00 23 24 mph 1021.1mb 49f
9:00 28 31 mph 1020.8mb 49f
8:00 30 32 mph 1020.4mb 50f
7:00 30 33 mph 1019.9mb 50f
6:00 28 30 mph 1019.6mb 50f
5:00 29 32 mph 1019mb 50f
4:00 31 34 mph 1018.7mb 51f
3:00 32 34 mph 1017.8mb 51f
2:00 34 39 mph 1017.2mb 51f
1:00 34 39 mph 1016.9mb 51f
12:00 36 40 mph 1016.4mb 51f
11:00 40 44 mph 1015.9mb 51f
10:00 38 41 mph 1015.1mb 51f
9:00 40 45 mph 1013.8mb 51f
8:00 40 47 mph 1012.3mb 51f
7:00 41 46 mph 1011.3mb 50f
6:00 34 40 mph 1010.5mb 50f
5:00 38 41 mph 1009.6mb 50f
4:00 40 45 mph 1009mb 48f
3:00 36 40 mph 1008.8mb 48f
2:00 39 43 mph 1008.1mb 49f
1:00 43 46 mph 1007.6mb 50f
12:00 31 38 mph 1007.7mb 49f
mar. 11/29 11:00 40 44 mph 1006.6mb 47f